Etusivu
METAR-TAF:

METAR-TAF

Lentoasemat :

Crystal Airport

Minneapolis / Crystal, Minnesota, Yhdysvallat

Leveyspiiri: 45-03-45N, Pituuspiiri: 093-21-03W, korkeus merenpinnasta: 264 m

Tämänhetkinen sää

Tämä raportti tehtiin 1 tunti ja 4 minuuttia sitten, kello 08.53 UTC
Tuuli 8 kn etelästä/kaakosta puuskistuen 17 kn:hen
Lämpötila -7°C
Kosteus 62%
Ilmanpaine 1014 hPa
Näkyvyys: 16.1 km
Hajonneita pilviä 11000 ft:n korkeudessa

METAR: KMIC 130853Z AUTO 16008G17KT 10SM BKN110 M07/M13 A2993 RMK AO2 SLP151 T10671133 56021

Aika: 03:57 (09:57 UTC)


TAF: puuttuu

Säähavainnot ja -ennusteet yli 4000 lentoasemalta (METAR- ja TAF-raportit).

Käytössä olevat sääasemat on merkitty karttaan keltaisilla ja punaisilla pisteillä.

Aseta hiiri pisteen päälle nähdäksesi sääaseman nimen.

Klikkaa sitten nähdäksesi säähavainnot ja -ennusteet.

Kartan vaihtaminen: klikkaa mustalla rastilla varustettuja vihreitä pisteitä, niin voit zoomata sisään; viivalla varustettua vihreää pistettä, niin voit zoomata ulos tai vihreitä nuolia, niin pääset viereisille kartoille.


METAR-TAF: